Time,TemperatureF,DewpointF,PressureIn,WindDirection,WindDirectionDegrees,WindSpeedMPH,WindSpeedGustMPH,Humidity,HourlyPrecipIn,Conditions,Clouds,dailyrainin,SoftwareType,DateUTC
2013-04-23 00:05:00,49.3,42.4,30.23,NE,41,5.0,9.0,77,0.00,,,0.00,Wunderground v.1.15,2013-04-23 07:05:00,
2013-04-23 00:11:00,49.0,42.1,30.22,NE,43,4.0,4.0,77,0.00,,,0.00,Wunderground v.1.15,2013-04-23 07:11:00,
2013-04-23 00:16:00,48.8,42.2,30.22,ENE,63,5.0,5.0,78,0.00,,,0.00,Wunderground v.1.15,2013-04-23 07:16:00,
2013-04-23 00:22:00,48.4,41.9,30.22,ENE,57,5.0,8.0,78,0.00,,,0.00,Wunderground v.1.15,2013-04-23 07:22:00,
2013-04-23 00:28:00,48.5,42.0,30.22,NE,56,5.0,8.0,78,0.00,,,0.00,Wunderground v.1.15,2013-04-23 07:28:00,
2013-04-23 00:33:00,48.7,41.8,30.22,ENE,69,5.0,9.0,77,0.00,,,0.00,Wunderground v.1.15,2013-04-23 07:33:00,
2013-04-23 00:38:00,49.2,42.0,30.22,NE,44,5.0,9.0,76,0.00,,,0.00,Wunderground v.1.15,2013-04-23 07:38:00,
2013-04-23 00:43:00,49.3,41.7,30.22,NE,41,6.0,10.0,75,0.00,,,0.00,Wunderground v.1.15,2013-04-23 07:43:00,
2013-04-23 00:49:00,49.2,41.6,30.23,NE,44,6.0,10.0,75,0.00,,,0.00,Wunderground v.1.15,2013-04-23 07:49:00,
2013-04-23 00:55:00,49.1,41.5,30.23,NE,51,5.0,6.0,75,0.00,,,0.00,Wunderground v.1.15,2013-04-23 07:55:00,
2013-04-23 01:00:00,49.0,41.4,30.22,ENE,57,5.0,7.0,75,0.00,,,0.00,Wunderground v.1.15,2013-04-23 08:00:00,
2013-04-23 01:05:00,48.8,41.6,30.23,ENE,60,5.0,8.0,76,0.00,,,0.00,Wunderground v.1.15,2013-04-23 08:05:00,
2013-04-23 01:10:00,48.5,41.3,30.23,ENE,67,5.0,8.0,76,0.00,,,0.00,Wunderground v.1.15,2013-04-23 08:10:00,
2013-04-23 01:16:00,48.4,41.2,30.23,NE,44,5.0,8.0,76,0.00,,,0.00,Wunderground v.1.15,2013-04-23 08:16:00,
2013-04-23 01:22:00,48.1,40.5,30.22,NE,46,4.0,8.0,75,0.00,,,0.00,Wunderground v.1.15,2013-04-23 08:22:00,
2013-04-23 01:28:00,47.6,40.4,30.22,NE,52,4.0,8.0,76,0.00,,,0.00,Wunderground v.1.15,2013-04-23 08:28:00,
2013-04-23 01:34:00,47.1,39.9,30.22,NE,51,4.0,8.0,76,0.00,,,0.00,Wunderground v.1.15,2013-04-23 08:34:00,
2013-04-23 01:39:00,47.0,39.8,30.22,NE,40,4.0,8.0,76,0.00,,,0.00,Wunderground v.1.15,2013-04-23 08:39:00,
2013-04-23 01:45:00,47.2,40.0,30.22,NE,55,4.0,8.0,76,0.00,,,0.00,Wunderground v.1.15,2013-04-23 08:45:00,
2013-04-23 01:50:00,47.4,40.2,30.22,NE,51,4.0,8.0,76,0.00,,,0.00,Wunderground v.1.15,2013-04-23 08:50:00,
2013-04-23 01:55:00,47.4,39.9,30.22,NE,55,5.0,8.0,75,0.00,,,0.00,Wunderground v.1.15,2013-04-23 08:55:00,
2013-04-23 02:01:00,47.2,39.7,30.22,ENE,67,5.0,9.0,75,0.00,,,0.00,Wunderground v.1.15,2013-04-23 09:01:00,
2013-04-23 02:06:00,46.8,39.6,30.22,ENE,69,6.0,9.0,76,0.00,,,0.00,Wunderground v.1.15,2013-04-23 09:06:00,
2013-04-23 02:12:00,47.2,39.3,30.21,ENE,61,8.0,9.0,74,0.00,,,0.00,Wunderground v.1.15,2013-04-23 09:12:00,
2013-04-23 02:18:00,47.2,39.0,30.21,ENE,77,8.0,10.0,73,0.00,,,0.00,Wunderground v.1.15,2013-04-23 09:18:00,
2013-04-23 02:23:00,46.9,38.7,30.21,ENE,67,7.0,8.0,73,0.00,,,0.00,Wunderground v.1.15,2013-04-23 09:23:00,
2013-04-23 02:29:00,47.0,38.4,30.20,ENE,65,7.0,11.0,72,0.00,,,0.00,Wunderground v.1.15,2013-04-23 09:29:00,
2013-04-23 02:35:00,47.2,38.3,30.20,ENE,69,8.0,10.0,71,0.00,,,0.00,Wunderground v.1.15,2013-04-23 09:35:00,
2013-04-23 02:41:00,46.8,38.2,30.20,ENE,57,7.0,8.0,72,0.00,,,0.00,Wunderground v.1.15,2013-04-23 09:41:00,
2013-04-23 02:46:00,46.6,38.1,30.20,ENE,70,6.0,8.0,72,0.00,,,0.00,Wunderground v.1.15,2013-04-23 09:46:00,
2013-04-23 02:52:00,46.4,38.2,30.19,ENE,68,5.0,8.0,73,0.00,,,0.00,Wunderground v.1.15,2013-04-23 09:52:00,
2013-04-23 02:57:00,46.7,37.8,30.20,ENE,69,5.0,8.0,71,0.00,,,0.00,Wunderground v.1.15,2013-04-23 09:57:00,
2013-04-23 03:02:00,46.8,37.5,30.20,ENE,68,5.0,8.0,70,0.00,,,0.00,Wunderground v.1.15,2013-04-23 10:02:00,
2013-04-23 03:08:00,46.8,37.5,30.20,ENE,59,4.0,8.0,70,0.00,,,0.00,Wunderground v.1.15,2013-04-23 10:08:00,
2013-04-23 03:13:00,47.2,37.9,30.19,NE,50,4.0,8.0,70,0.00,,,0.00,Wunderground v.1.15,2013-04-23 10:13:00,
2013-04-23 03:19:00,47.4,37.7,30.19,ENE,61,5.0,8.0,69,0.00,,,0.00,Wunderground v.1.15,2013-04-23 10:19:00,
2013-04-23 03:25:00,47.5,37.5,30.19,NE,52,4.0,8.0,68,0.00,,,0.00,Wunderground v.1.15,2013-04-23 10:25:00,
2013-04-23 03:30:00,47.3,37.6,30.19,ENE,59,4.0,5.0,69,0.00,,,0.00,Wunderground v.1.15,2013-04-23 10:30:00,
2013-04-23 03:36:00,47.1,37.8,30.19,NE,51,4.0,8.0,70,0.00,,,0.00,Wunderground v.1.15,2013-04-23 10:36:00,
2013-04-23 03:42:00,46.5,38.0,30.19,NE,51,4.0,8.0,72,0.00,,,0.00,Wunderground v.1.15,2013-04-23 10:42:00,
2013-04-23 03:48:00,46.0,37.5,30.19,NE,51,4.0,8.0,72,0.00,,,0.00,Wunderground v.1.15,2013-04-23 10:48:00,
2013-04-23 03:53:00,45.6,37.1,30.19,NE,42,4.0,8.0,72,0.00,,,0.00,Wunderground v.1.15,2013-04-23 10:53:00,
2013-04-23 03:59:00,45.9,37.0,30.19,ENE,60,4.0,8.0,71,0.00,,,0.00,Wunderground v.1.15,2013-04-23 10:59:00,
2013-04-23 04:05:00,46.3,36.3,30.19,NE,49,4.0,8.0,68,0.00,,,0.00,Wunderground v.1.15,2013-04-23 11:05:00,
2013-04-23 04:11:00,46.2,36.2,30.19,ENE,57,4.0,8.0,68,0.00,,,0.00,Wunderground v.1.15,2013-04-23 11:11:00,
2013-04-23 04:16:00,46.1,36.1,30.19,ENE,67,4.0,8.0,68,0.00,,,0.00,Wunderground v.1.15,2013-04-23 11:16:00,
2013-04-23 04:22:00,46.1,36.1,30.19,ENE,61,6.0,10.0,68,0.00,,,0.00,Wunderground v.1.15,2013-04-23 11:22:00,
2013-04-23 04:27:00,46.2,36.2,30.19,ENE,68,6.0,10.0,68,0.00,,,0.00,Wunderground v.1.15,2013-04-23 11:27:00,
2013-04-23 04:32:00,46.2,36.2,30.19,NE,54,6.0,8.0,68,0.00,,,0.00,Wunderground v.1.15,2013-04-23 11:32:00,
2013-04-23 04:38:00,46.1,36.1,30.19,NE,49,4.0,8.0,68,0.00,,,0.00,Wunderground v.1.15,2013-04-23 11:38:00,
2013-04-23 04:43:00,45.9,35.9,30.19,NE,49,4.0,8.0,68,0.00,,,0.00,Wunderground v.1.15,2013-04-23 11:43:00,
2013-04-23 04:49:00,45.7,35.7,30.19,NE,51,4.0,8.0,68,0.00,,,0.00,Wunderground v.1.15,2013-04-23 11:49:00,
2013-04-23 04:54:00,45.6,36.0,30.19,NE,46,4.0,8.0,69,0.00,,,0.00,Wunderground v.1.15,2013-04-23 11:54:00,
2013-04-23 04:59:00,45.7,36.1,30.19,NE,34,4.0,8.0,69,0.00,,,0.00,Wunderground v.1.15,2013-04-23 11:59:00,
2013-04-23 05:05:00,45.7,35.7,30.18,NE,35,4.0,8.0,68,0.00,,,0.00,Wunderground v.1.15,2013-04-23 12:05:00,
2013-04-23 05:10:00,45.6,35.6,30.18,NE,51,4.0,8.0,68,0.00,,,0.00,Wunderground v.1.15,2013-04-23 12:10:00,
2013-04-23 05:16:00,45.5,35.9,30.18,NE,53,4.0,8.0,69,0.00,,,0.00,Wunderground v.1.15,2013-04-23 12:16:00,
2013-04-23 05:21:00,45.5,35.9,30.18,NE,36,4.0,8.0,69,0.00,,,0.00,Wunderground v.1.15,2013-04-23 12:21:00,
2013-04-23 05:27:00,45.9,35.9,30.17,NE,46,4.0,8.0,68,0.00,,,0.00,Wunderground v.1.15,2013-04-23 12:27:00,
2013-04-23 05:33:00,46.0,35.7,30.17,ENE,66,5.0,8.0,67,0.00,,,0.00,Wunderground v.1.15,2013-04-23 12:33:00,
2013-04-23 05:38:00,45.8,36.2,30.17,ENE,59,4.0,8.0,69,0.00,,,0.00,Wunderground v.1.15,2013-04-23 12:38:00,
2013-04-23 05:43:00,45.4,36.2,30.17,ENE,59,4.0,8.0,70,0.00,,,0.00,Wunderground v.1.15,2013-04-23 12:43:00,
2013-04-23 05:48:00,44.9,36.1,30.17,ENE,62,4.0,8.0,71,0.00,,,0.00,Wunderground v.1.15,2013-04-23 12:48:00,
2013-04-23 05:54:00,44.7,35.5,30.17,NE,54,4.0,8.0,70,0.00,,,0.00,Wunderground v.1.15,2013-04-23 12:54:00,
2013-04-23 05:59:00,44.5,35.3,30.17,ENE,60,4.0,8.0,70,0.00,,,0.00,Wunderground v.1.15,2013-04-23 12:59:00,
2013-04-23 06:04:00,44.5,35.3,30.18,ENE,59,5.0,8.0,70,0.00,,,0.00,Wunderground v.1.15,2013-04-23 13:04:00,
2013-04-23 06:10:00,44.5,35.3,30.17,ENE,62,4.0,4.0,70,0.00,,,0.00,Wunderground v.1.15,2013-04-23 13:10:00,
2013-04-23 06:15:00,44.5,35.3,30.17,ENE,61,3.0,8.0,70,0.00,,,0.00,Wunderground v.1.15,2013-04-23 13:15:00,
2013-04-23 06:21:00,44.5,35.3,30.17,ENE,63,4.0,8.0,70,0.00,,,0.00,Wunderground v.1.15,2013-04-23 13:21:00,
2013-04-23 06:27:00,44.4,35.2,30.17,NE,55,3.0,8.0,70,0.00,,,0.00,Wunderground v.1.15,2013-04-23 13:27:00,
2013-04-23 06:33:00,44.2,35.4,30.17,NE,55,3.0,8.0,71,0.00,,,0.00,Wunderground v.1.15,2013-04-23 13:33:00,
2013-04-23 06:39:00,44.1,35.6,30.17,NE,56,3.0,8.0,72,0.00,,,0.00,Wunderground v.1.15,2013-04-23 13:39:00,
2013-04-23 06:45:00,44.2,35.0,30.17,ENE,57,3.0,8.0,70,0.00,,,0.00,Wunderground v.1.15,2013-04-23 13:45:00,
2013-04-23 06:51:00,44.4,35.2,30.17,NE,51,3.0,8.0,70,0.00,,,0.00,Wunderground v.1.15,2013-04-23 13:51:00,
2013-04-23 06:56:00,44.9,35.0,30.17,NE,36,3.0,8.0,68,0.00,,,0.00,Wunderground v.1.15,2013-04-23 13:56:00,
2013-04-23 07:02:00,45.3,35.4,30.17,NE,41,3.0,8.0,68,0.00,,,0.00,Wunderground v.1.15,2013-04-23 14:02:00,
2013-04-23 07:08:00,45.5,35.2,30.17,NE,53,4.0,8.0,67,0.00,,,0.00,Wunderground v.1.15,2013-04-23 14:08:00,
2013-04-23 07:13:00,45.5,35.2,30.18,NE,52,4.0,8.0,67,0.00,,,0.00,Wunderground v.1.15,2013-04-23 14:13:00,
2013-04-23 07:19:00,45.6,35.3,30.17,NE,53,3.0,8.0,67,0.00,,,0.00,Wunderground v.1.15,2013-04-23 14:19:00,
2013-04-23 07:25:00,45.9,35.6,30.17,NE,51,4.0,8.0,67,0.00,,,0.00,Wunderground v.1.15,2013-04-23 14:25:00,
2013-04-23 07:31:00,46.3,35.9,30.18,NE,51,3.0,8.0,67,0.00,,,0.00,Wunderground v.1.15,2013-04-23 14:31:00,
2013-04-23 07:37:00,46.7,36.3,30.18,NE,51,2.0,8.0,67,0.00,,,0.00,Wunderground v.1.15,2013-04-23 14:37:00,
2013-04-23 07:43:00,47.0,37.4,30.18,NE,51,3.0,8.0,69,0.00,,,0.00,Wunderground v.1.15,2013-04-23 14:43:00,
2013-04-23 07:49:00,47.0,37.7,30.18,NE,39,2.0,8.0,70,0.00,,,0.00,Wunderground v.1.15,2013-04-23 14:49:00,
2013-04-23 07:54:00,47.2,37.9,30.18,NE,39,3.0,8.0,70,0.00,,,0.00,Wunderground v.1.15,2013-04-23 14:54:00,
2013-04-23 08:00:00,47.8,38.1,30.18,NE,39,2.0,8.0,69,0.00,,,0.00,Wunderground v.1.15,2013-04-23 15:00:00,
2013-04-23 08:05:00,48.5,37.7,30.18,NE,46,2.0,8.0,66,0.00,,,0.00,Wunderground v.1.15,2013-04-23 15:05:00,
2013-04-23 08:10:00,49.2,37.9,30.19,NE,46,2.0,8.0,65,0.00,,,0.00,Wunderground v.1.15,2013-04-23 15:10:00,
2013-04-23 08:16:00,49.8,37.7,30.19,NE,46,2.0,8.0,63,0.00,,,0.00,Wunderground v.1.15,2013-04-23 15:16:00,
2013-04-23 08:21:00,50.3,37.4,30.19,NE,49,3.0,8.0,61,0.00,,,0.00,Wunderground v.1.15,2013-04-23 15:21:00,
2013-04-23 08:26:00,50.6,38.5,30.19,NE,49,3.0,8.0,63,0.00,,,0.00,Wunderground v.1.15,2013-04-23 15:26:00,
2013-04-23 08:32:00,50.3,39.4,30.19,NNE,30,3.0,8.0,66,0.00,,,0.00,Wunderground v.1.15,2013-04-23 15:32:00,
2013-04-23 08:38:00,50.0,39.1,30.19,NNE,15,3.0,8.0,66,0.00,,,0.00,Wunderground v.1.15,2013-04-23 15:38:00,
2013-04-23 08:43:00,49.9,39.0,30.18,North,5,3.0,8.0,66,0.00,,,0.00,Wunderground v.1.15,2013-04-23 15:43:00,
2013-04-23 08:48:00,49.4,39.3,30.19,North,5,4.0,8.0,68,0.00,,,0.00,Wunderground v.1.15,2013-04-23 15:48:00,
2013-04-23 08:54:00,48.6,39.6,30.18,NNW,344,5.0,8.0,71,0.00,,,0.00,Wunderground v.1.15,2013-04-23 15:54:00,
2013-04-23 08:59:00,48.3,40.0,30.18,North,5,6.0,8.0,73,0.00,,,0.00,Wunderground v.1.15,2013-04-23 15:59:00,
2013-04-23 09:05:00,48.2,39.9,30.18,North,355,6.0,8.0,73,0.00,,,0.00,Wunderground v.1.15,2013-04-23 16:05:00,
2013-04-23 09:10:00,47.9,40.0,30.18,NNW,348,7.0,10.0,74,0.00,,,0.00,Wunderground v.1.15,2013-04-23 16:10:00,
2013-04-23 09:15:00,47.6,40.4,30.18,North,355,9.0,11.0,76,0.00,,,0.00,Wunderground v.1.15,2013-04-23 16:15:00,
2013-04-23 09:21:00,47.6,40.4,30.19,North,355,10.0,12.0,76,0.00,,,0.00,Wunderground v.1.15,2013-04-23 16:21:00,
2013-04-23 09:27:00,47.8,40.3,30.19,NNW,347,11.0,13.0,75,0.00,,,0.00,Wunderground v.1.15,2013-04-23 16:27:00,
2013-04-23 09:32:00,47.8,40.6,30.19,North,355,11.0,15.0,76,0.00,,,0.00,Wunderground v.1.15,2013-04-23 16:32:00,
2013-04-23 09:38:00,47.8,40.6,30.18,North,351,12.0,15.0,76,0.00,,,0.00,Wunderground v.1.15,2013-04-23 16:38:00,
2013-04-23 09:43:00,47.8,40.9,30.18,NNW,348,12.0,14.0,77,0.00,,,0.00,Wunderground v.1.15,2013-04-23 16:43:00,
2013-04-23 09:48:00,47.7,40.8,30.18,North,10,12.0,16.0,77,0.00,,,0.00,Wunderground v.1.15,2013-04-23 16:48:00,
2013-04-23 09:53:00,47.8,40.9,30.18,North,355,13.0,14.0,77,0.00,,,0.00,Wunderground v.1.15,2013-04-23 16:53:00,
2013-04-23 09:59:00,47.9,41.0,30.18,North,5,13.0,17.0,77,0.00,,,0.00,Wunderground v.1.15,2013-04-23 16:59:00,
2013-04-23 10:05:00,48.1,40.9,30.18,North,355,14.0,18.0,76,0.00,,,0.00,Wunderground v.1.15,2013-04-23 17:05:00,
2013-04-23 10:10:00,48.1,40.5,30.18,North,5,14.0,17.0,75,0.00,,,0.00,Wunderground v.1.15,2013-04-23 17:10:00,
2013-04-23 10:16:00,48.3,40.7,30.18,North,355,14.0,17.0,75,0.00,,,0.00,Wunderground v.1.15,2013-04-23 17:16:00,
2013-04-23 10:21:00,48.4,40.5,30.18,North,355,15.0,17.0,74,0.00,,,0.00,Wunderground v.1.15,2013-04-23 17:21:00,
2013-04-23 10:27:00,48.6,40.3,30.18,North,360,14.0,17.0,73,0.00,,,0.00,Wunderground v.1.15,2013-04-23 17:27:00,
2013-04-23 10:32:00,48.8,40.2,30.18,NNW,344,14.0,17.0,72,0.00,,,0.00,Wunderground v.1.15,2013-04-23 17:32:00,
2013-04-23 10:38:00,49.0,40.4,30.18,North,355,14.0,17.0,72,0.00,,,0.00,Wunderground v.1.15,2013-04-23 17:38:00,
2013-04-23 10:43:00,49.1,40.5,30.18,North,350,13.0,14.0,72,0.00,,,0.00,Wunderground v.1.15,2013-04-23 17:43:00,
2013-04-23 10:48:00,49.0,40.7,30.18,North,355,13.0,16.0,73,0.00,,,0.00,Wunderground v.1.15,2013-04-23 17:48:00,
2013-04-23 10:54:00,49.2,40.6,30.18,North,9,14.0,19.0,72,0.00,,,0.00,Wunderground v.1.15,2013-04-23 17:54:00,
2013-04-23 10:59:00,49.3,39.9,30.18,NNE,22,16.0,19.0,70,0.00,,,0.00,Wunderground v.1.15,2013-04-23 17:59:00,
2013-04-23 11:04:00,49.5,39.7,30.18,North,351,16.0,17.0,69,0.00,,,0.00,Wunderground v.1.15,2013-04-23 18:04:00,
2013-04-23 11:10:00,49.7,39.9,30.18,North,360,16.0,16.0,69,0.00,,,0.00,Wunderground v.1.15,2013-04-23 18:10:00,
2013-04-23 11:16:00,49.8,40.0,30.18,North,5,17.0,20.0,69,0.00,,,0.00,Wunderground v.1.15,2013-04-23 18:16:00,
2013-04-23 11:22:00,49.7,39.9,30.18,North,355,16.0,21.0,69,0.00,,,0.00,Wunderground v.1.15,2013-04-23 18:22:00,
2013-04-23 11:28:00,49.8,40.0,30.18,North,360,17.0,21.0,69,0.00,,,0.00,Wunderground v.1.15,2013-04-23 18:28:00,
2013-04-23 11:34:00,49.9,40.1,30.18,North,9,17.0,23.0,69,0.00,,,0.00,Wunderground v.1.15,2013-04-23 18:34:00,
2013-04-23 11:40:00,49.9,40.1,30.18,North,360,18.0,18.0,69,0.00,,,0.00,Wunderground v.1.15,2013-04-23 18:40:00,
2013-04-23 11:46:00,50.1,39.9,30.18,NNE,13,19.0,20.0,68,0.00,,,0.00,Wunderground v.1.15,2013-04-23 18:46:00,
2013-04-23 11:52:00,50.4,40.2,30.18,North,355,18.0,19.0,68,0.00,,,0.00,Wunderground v.1.15,2013-04-23 18:52:00,
2013-04-23 11:58:00,50.4,40.6,30.18,North,5,18.0,20.0,69,0.00,,,0.00,Wunderground v.1.15,2013-04-23 18:58:00,
2013-04-23 12:03:00,50.2,41.2,30.18,North,5,17.0,19.0,71,0.00,,,0.00,Wunderground v.1.15,2013-04-23 19:03:00,
2013-04-23 12:08:00,50.1,41.1,30.18,NNW,344,17.0,19.0,71,0.00,,,0.00,Wunderground v.1.15,2013-04-23 19:08:00,
2013-04-23 12:14:00,50.2,41.2,30.18,North,350,17.0,21.0,71,0.00,,,0.00,Wunderground v.1.15,2013-04-23 19:14:00,
2013-04-23 12:20:00,50.3,41.3,30.18,North,360,17.0,17.0,71,0.00,,,0.00,Wunderground v.1.15,2013-04-23 19:20:00,
2013-04-23 12:25:00,50.4,41.3,30.17,North,355,16.0,18.0,71,0.00,,,0.00,Wunderground v.1.15,2013-04-23 19:25:00,
2013-04-23 12:30:00,50.4,41.3,30.17,North,5,16.0,17.0,71,0.00,,,0.00,Wunderground v.1.15,2013-04-23 19:30:00,
2013-04-23 12:36:00,50.4,41.7,30.17,North,350,16.0,17.0,72,0.00,,,0.00,Wunderground v.1.15,2013-04-23 19:36:00,
2013-04-23 12:42:00,50.1,41.8,30.17,NNW,336,16.0,19.0,73,0.00,,,0.00,Wunderground v.1.15,2013-04-23 19:42:00,
2013-04-23 12:47:00,50.1,42.1,30.17,North,349,16.0,20.0,74,0.00,,,0.00,Wunderground v.1.15,2013-04-23 19:47:00,
2013-04-23 12:52:00,50.1,42.1,30.17,North,355,16.0,17.0,74,0.00,,,0.00,Wunderground v.1.15,2013-04-23 19:52:00,
2013-04-23 12:58:00,50.0,42.4,30.17,North,350,18.0,22.0,75,0.00,,,0.00,Wunderground v.1.15,2013-04-23 19:58:00,
2013-04-23 13:04:00,49.9,42.6,30.17,NNW,338,19.0,25.0,76,0.00,,,0.00,Wunderground v.1.15,2013-04-23 20:04:00,
2013-04-23 13:10:00,49.8,43.2,30.17,NNW,344,20.0,20.0,78,0.00,,,0.00,Wunderground v.1.15,2013-04-23 20:10:00,
2013-04-23 13:15:00,49.7,43.5,30.17,NNW,346,20.0,22.0,79,0.00,,,0.00,Wunderground v.1.15,2013-04-23 20:15:00,
2013-04-23 13:21:00,49.9,44.0,30.16,North,360,18.0,21.0,80,0.00,,,0.00,Wunderground v.1.15,2013-04-23 20:21:00,
2013-04-23 13:26:00,49.8,43.9,30.16,NNE,27,18.0,22.0,80,0.00,,,0.00,Wunderground v.1.15,2013-04-23 20:26:00,
2013-04-23 13:32:00,49.8,43.9,30.16,NNW,344,18.0,18.0,80,0.00,,,0.00,Wunderground v.1.15,2013-04-23 20:32:00,
2013-04-23 13:37:00,49.8,44.2,30.16,NNW,347,18.0,21.0,81,0.00,,,0.00,Wunderground v.1.15,2013-04-23 20:37:00,
2013-04-23 13:43:00,49.7,44.1,30.16,North,350,19.0,22.0,81,0.00,,,0.00,Wunderground v.1.15,2013-04-23 20:43:00,
2013-04-23 13:49:00,49.7,44.1,30.16,North,5,19.0,22.0,81,0.00,,,0.00,Wunderground v.1.15,2013-04-23 20:49:00,
2013-04-23 13:55:00,49.7,44.1,30.16,North,355,19.0,24.0,81,0.00,,,0.00,Wunderground v.1.15,2013-04-23 20:55:00,
2013-04-23 14:01:00,49.6,44.0,30.16,North,350,20.0,20.0,81,0.00,,,0.00,Wunderground v.1.15,2013-04-23 21:01:00,
2013-04-23 14:07:00,49.8,43.9,30.16,North,5,20.0,25.0,80,0.00,,,0.00,Wunderground v.1.15,2013-04-23 21:07:00,
2013-04-23 14:13:00,50.0,43.7,30.16,North,350,20.0,23.0,79,0.00,,,0.00,Wunderground v.1.15,2013-04-23 21:13:00,
2013-04-23 14:18:00,50.1,43.5,30.16,North,360,21.0,26.0,78,0.00,,,0.00,Wunderground v.1.15,2013-04-23 21:18:00,
2013-04-23 14:24:00,49.9,43.6,30.16,North,5,22.0,24.0,79,0.00,,,0.00,Wunderground v.1.15,2013-04-23 21:24:00,
2013-04-23 14:30:00,49.9,44.0,30.16,North,355,21.0,22.0,80,0.00,,,0.00,Wunderground v.1.15,2013-04-23 21:30:00,
2013-04-23 14:35:00,49.9,44.3,30.16,North,360,21.0,23.0,81,0.00,,,0.00,Wunderground v.1.15,2013-04-23 21:35:00,
2013-04-23 14:40:00,49.9,44.3,30.16,North,355,21.0,21.0,81,0.00,,,0.00,Wunderground v.1.15,2013-04-23 21:40:00,
2013-04-23 14:45:00,49.9,44.3,30.16,North,360,21.0,22.0,81,0.00,,,0.00,Wunderground v.1.15,2013-04-23 21:45:00,
2013-04-23 14:50:00,49.9,44.3,30.15,North,355,20.0,22.0,81,0.00,,,0.00,Wunderground v.1.15,2013-04-23 21:50:00,
2013-04-23 14:55:00,49.9,44.3,30.15,NNE,13,20.0,24.0,81,0.00,,,0.00,Wunderground v.1.15,2013-04-23 21:55:00,
2013-04-23 15:01:00,49.9,44.3,30.15,North,355,19.0,19.0,81,0.00,,,0.00,Wunderground v.1.15,2013-04-23 22:01:00,
2013-04-23 15:07:00,50.1,44.2,30.15,North,360,18.0,21.0,80,0.00,,,0.00,Wunderground v.1.15,2013-04-23 22:07:00,
2013-04-23 15:13:00,50.1,44.2,30.15,NW,325,20.0,22.0,80,0.00,,,0.00,Wunderground v.1.15,2013-04-23 22:13:00,
2013-04-23 15:18:00,50.1,44.2,30.15,North,355,22.0,24.0,80,0.00,,,0.00,Wunderground v.1.15,2013-04-23 22:18:00,
2013-04-23 15:24:00,50.1,44.5,30.14,North,350,23.0,25.0,81,0.00,,,0.00,Wunderground v.1.15,2013-04-23 22:24:00,
2013-04-23 15:29:00,50.1,44.5,30.15,North,355,23.0,29.0,81,0.00,,,0.00,Wunderground v.1.15,2013-04-23 22:29:00,
2013-04-23 15:35:00,50.1,44.5,30.15,North,360,22.0,24.0,81,0.00,,,0.00,Wunderground v.1.15,2013-04-23 22:35:00,
2013-04-23 15:41:00,50.1,44.5,30.15,NNW,338,22.0,22.0,81,0.00,,,0.00,Wunderground v.1.15,2013-04-23 22:41:00,
2013-04-23 15:46:00,50.1,44.5,30.14,North,355,21.0,24.0,81,0.00,,,0.00,Wunderground v.1.15,2013-04-23 22:46:00,
2013-04-23 15:51:00,50.1,44.2,30.14,NNW,338,21.0,25.0,80,0.00,,,0.00,Wunderground v.1.15,2013-04-23 22:51:00,
2013-04-23 15:57:00,50.1,44.2,30.14,NNW,342,21.0,26.0,80,0.00,,,0.00,Wunderground v.1.15,2013-04-23 22:57:00,
2013-04-23 16:03:00,50.3,44.4,30.14,North,355,19.0,22.0,80,0.00,,,0.00,Wunderground v.1.15,2013-04-23 23:03:00,
2013-04-23 16:09:00,50.3,44.0,30.14,North,355,20.0,25.0,79,0.00,,,0.00,Wunderground v.1.15,2013-04-23 23:09:00,
2013-04-23 16:15:00,50.3,44.4,30.13,North,355,22.0,27.0,80,0.00,,,0.00,Wunderground v.1.15,2013-04-23 23:15:00,
2013-04-23 16:20:00,50.2,44.3,30.13,NNE,29,22.0,23.0,80,0.00,,,0.00,Wunderground v.1.15,2013-04-23 23:20:00,
2013-04-23 16:26:00,50.1,44.2,30.14,North,355,22.0,23.0,80,0.00,,,0.00,Wunderground v.1.15,2013-04-23 23:26:00,
2013-04-23 16:31:00,50.1,44.2,30.13,North,10,22.0,24.0,80,0.00,,,0.00,Wunderground v.1.15,2013-04-23 23:31:00,
2013-04-23 16:37:00,50.2,44.3,30.13,North,350,22.0,27.0,80,0.00,,,0.00,Wunderground v.1.15,2013-04-23 23:37:00,
2013-04-23 16:43:00,50.1,44.2,30.13,North,5,22.0,27.0,80,0.00,,,0.00,Wunderground v.1.15,2013-04-23 23:43:00,
2013-04-23 16:49:00,50.1,44.2,30.13,North,355,22.0,27.0,80,0.00,,,0.00,Wunderground v.1.15,2013-04-23 23:49:00,
2013-04-23 16:55:00,50.1,44.2,30.13,North,5,22.0,27.0,80,0.00,,,0.00,Wunderground v.1.15,2013-04-23 23:55:00,
2013-04-23 17:00:00,50.1,44.2,30.13,North,5,22.0,22.0,80,0.00,,,0.00,Wunderground v.1.15,2013-04-24 00:00:00,
2013-04-23 17:05:00,50.1,44.2,30.13,North,355,22.0,25.0,80,0.00,,,0.00,Wunderground v.1.15,2013-04-24 00:05:00,
2013-04-23 17:11:00,50.2,44.3,30.12,North,355,21.0,24.0,80,0.00,,,0.00,Wunderground v.1.15,2013-04-24 00:11:00,
2013-04-23 17:17:00,50.1,44.2,30.12,NNW,346,22.0,24.0,80,0.00,,,0.00,Wunderground v.1.15,2013-04-24 00:17:00,
2013-04-23 17:22:00,50.1,44.2,30.12,North,5,22.0,24.0,80,0.00,,,0.00,Wunderground v.1.15,2013-04-24 00:22:00,
2013-04-23 17:28:00,50.1,44.2,30.12,North,360,22.0,24.0,80,0.00,,,0.00,Wunderground v.1.15,2013-04-24 00:28:00,
2013-04-23 17:34:00,50.0,44.4,30.12,North,360,22.0,24.0,81,0.00,,,0.00,Wunderground v.1.15,2013-04-24 00:34:00,
2013-04-23 17:40:00,49.9,44.3,30.12,North,355,22.0,22.0,81,0.00,,,0.00,Wunderground v.1.15,2013-04-24 00:40:00,
2013-04-23 17:46:00,49.9,44.3,30.12,North,360,21.0,25.0,81,0.00,,,0.00,Wunderground v.1.15,2013-04-24 00:46:00,
2013-04-23 17:52:00,49.9,44.3,30.12,NNE,19,21.0,23.0,81,0.00,,,0.00,Wunderground v.1.15,2013-04-24 00:52:00,
2013-04-23 17:57:00,49.9,44.6,30.12,North,355,21.0,24.0,82,0.00,,,0.00,Wunderground v.1.15,2013-04-24 00:57:00,
2013-04-23 18:03:00,49.8,44.2,30.12,North,350,21.0,26.0,81,0.00,,,0.00,Wunderground v.1.15,2013-04-24 01:03:00,
2013-04-23 18:08:00,49.8,44.2,30.12,North,5,22.0,27.0,81,0.00,,,0.00,Wunderground v.1.15,2013-04-24 01:08:00,
2013-04-23 18:13:00,49.7,44.1,30.12,NNW,348,22.0,24.0,81,0.00,,,0.00,Wunderground v.1.15,2013-04-24 01:13:00,
2013-04-23 18:19:00,49.8,44.2,30.12,NNW,333,20.0,24.0,81,0.00,,,0.00,Wunderground v.1.15,2013-04-24 01:19:00,
2013-04-23 18:25:00,49.7,44.1,30.12,North,350,20.0,24.0,81,0.00,,,0.00,Wunderground v.1.15,2013-04-24 01:25:00,
2013-04-23 18:31:00,49.6,44.3,30.12,North,355,20.0,22.0,82,0.00,,,0.00,Wunderground v.1.15,2013-04-24 01:31:00,
2013-04-23 18:37:00,49.5,44.2,30.12,North,360,21.0,22.0,82,0.00,,,0.00,Wunderground v.1.15,2013-04-24 01:37:00,
2013-04-23 18:43:00,49.3,44.4,30.12,North,360,21.0,22.0,83,0.00,,,0.00,Wunderground v.1.15,2013-04-24 01:43:00,
2013-04-23 18:49:00,49.2,44.3,30.12,North,355,20.0,24.0,83,0.00,,,0.00,Wunderground v.1.15,2013-04-24 01:49:00,
2013-04-23 18:55:00,49.1,44.2,30.12,North,350,20.0,20.0,83,0.00,,,0.00,Wunderground v.1.15,2013-04-24 01:55:00,
2013-04-23 19:01:00,49.0,44.1,30.12,NNW,339,20.0,22.0,83,0.00,,,0.00,Wunderground v.1.15,2013-04-24 02:01:00,
2013-04-23 19:06:00,49.0,44.1,30.11,North,5,20.0,24.0,83,0.00,,,0.00,Wunderground v.1.15,2013-04-24 02:06:00,
2013-04-23 19:12:00,48.9,43.6,30.11,North,355,20.0,20.0,82,0.00,,,0.00,Wunderground v.1.15,2013-04-24 02:12:00,
2013-04-23 19:17:00,48.8,43.9,30.11,NNW,342,20.0,26.0,83,0.00,,,0.00,Wunderground v.1.15,2013-04-24 02:17:00,
2013-04-23 19:22:00,48.7,43.8,30.11,North,355,20.0,23.0,83,0.00,,,0.00,Wunderground v.1.15,2013-04-24 02:22:00,
2013-04-23 19:28:00,48.5,43.6,30.11,North,9,20.0,23.0,83,0.00,,,0.00,Wunderground v.1.15,2013-04-24 02:28:00,
2013-04-23 19:34:00,48.5,43.6,30.12,North,355,21.0,24.0,83,0.00,,,0.00,Wunderground v.1.15,2013-04-24 02:34:00,
2013-04-23 19:39:00,48.4,43.5,30.12,North,355,20.0,21.0,83,0.00,,,0.00,Wunderground v.1.15,2013-04-24 02:39:00,
2013-04-23 19:45:00,48.3,43.7,30.12,NNE,15,18.0,21.0,84,0.00,,,0.00,Wunderground v.1.15,2013-04-24 02:45:00,
2013-04-23 19:51:00,48.1,43.5,30.12,North,5,17.0,19.0,84,0.00,,,0.00,Wunderground v.1.15,2013-04-24 02:51:00,
2013-04-23 19:57:00,47.9,43.6,30.12,NNE,16,16.0,19.0,85,0.00,,,0.00,Wunderground v.1.15,2013-04-24 02:57:00,
2013-04-23 20:02:00,47.8,43.8,30.12,NNE,19,14.0,17.0,86,0.00,,,0.00,Wunderground v.1.15,2013-04-24 03:02:00,
2013-04-23 20:08:00,47.7,43.7,30.12,North,9,12.0,17.0,86,0.00,,,0.00,Wunderground v.1.15,2013-04-24 03:08:00,
2013-04-23 20:13:00,47.6,43.6,30.13,NNE,20,11.0,12.0,86,0.00,,,0.00,Wunderground v.1.15,2013-04-24 03:13:00,
2013-04-23 20:19:00,47.5,43.5,30.13,North,360,11.0,12.0,86,0.00,,,0.00,Wunderground v.1.15,2013-04-24 03:19:00,
2013-04-23 20:24:00,47.4,43.7,30.13,North,5,10.0,15.0,87,0.00,,,0.00,Wunderground v.1.15,2013-04-24 03:24:00,
2013-04-23 20:30:00,47.3,43.6,30.13,North,351,9.0,12.0,87,0.00,,,0.00,Wunderground v.1.15,2013-04-24 03:30:00,
2013-04-23 20:36:00,47.2,43.5,30.13,North,5,8.0,15.0,87,0.00,,,0.00,Wunderground v.1.15,2013-04-24 03:36:00,
2013-04-23 20:42:00,47.1,43.4,30.13,North,5,8.0,9.0,87,0.00,,,0.00,Wunderground v.1.15,2013-04-24 03:42:00,
2013-04-23 20:48:00,47.1,43.7,30.13,North,5,7.0,10.0,88,0.00,,,0.00,Wunderground v.1.15,2013-04-24 03:48:00,
2013-04-23 20:53:00,47.0,43.6,30.14,North,11,8.0,10.0,88,0.00,,,0.00,Wunderground v.1.15,2013-04-24 03:53:00,
2013-04-23 20:58:00,47.0,43.6,30.14,North,11,7.0,13.0,88,0.00,,,0.00,Wunderground v.1.15,2013-04-24 03:58:00,
2013-04-23 21:01:00,47.0,43.6,30.14,NE,46,7.0,8.0,88,0.00,,,0.00,Wunderground v.1.15,2013-04-24 04:01:00,
2013-04-23 21:02:00,47.0,43.6,30.14,NNW,348,7.0,8.0,88,0.00,,,0.00,Wunderground v.1.15,2013-04-24 04:02:00,
2013-04-23 21:05:00,47.0,43.9,30.14,NNE,16,7.0,12.0,89,0.00,,,0.00,Wunderground v.1.15,2013-04-24 04:05:00,
2013-04-23 21:07:00,47.0,43.9,30.14,North,360,7.0,12.0,89,0.00,,,0.00,Wunderground v.1.15,2013-04-24 04:07:00,
2013-04-23 21:12:00,46.9,43.8,30.14,NE,38,7.0,10.0,89,0.00,,,0.00,Wunderground v.1.15,2013-04-24 04:12:00,
2013-04-23 21:18:00,47.0,43.9,30.15,NE,40,7.0,13.0,89,0.00,,,0.00,Wunderground v.1.15,2013-04-24 04:18:00,
2013-04-23 21:24:00,47.0,43.9,30.15,ENE,66,8.0,8.0,89,0.00,,,0.00,Wunderground v.1.15,2013-04-24 04:24:00,
2013-04-23 21:29:00,46.8,43.7,30.15,NE,46,7.0,9.0,89,0.00,,,0.00,Wunderground v.1.15,2013-04-24 04:29:00,
2013-04-23 21:34:00,46.7,43.6,30.15,NNE,19,6.0,9.0,89,0.00,,,0.00,Wunderground v.1.15,2013-04-24 04:34:00,
2013-04-23 21:40:00,46.7,43.9,30.15,NNE,24,6.0,6.0,90,0.00,,,0.00,Wunderground v.1.15,2013-04-24 04:40:00,
2013-04-23 21:46:00,46.8,44.0,30.16,NE,56,6.0,13.0,90,0.00,,,0.00,Wunderground v.1.15,2013-04-24 04:46:00,
2013-04-23 21:52:00,46.7,43.9,30.16,NNE,15,6.0,12.0,90,0.00,,,0.00,Wunderground v.1.15,2013-04-24 04:52:00,
2013-04-23 21:57:00,46.7,44.2,30.16,North,9,6.0,12.0,91,0.00,,,0.00,Wunderground v.1.15,2013-04-24 04:57:00,
2013-04-23 22:02:00,46.7,44.2,30.16,NNE,33,6.0,8.0,91,0.00,,,0.00,Wunderground v.1.15,2013-04-24 05:02:00,
2013-04-23 22:08:00,46.7,44.2,30.15,North,355,7.0,12.0,91,0.00,,,0.00,Wunderground v.1.15,2013-04-24 05:08:00,
2013-04-23 22:14:00,46.6,44.1,30.16,NNE,13,7.0,10.0,91,0.00,,,0.00,Wunderground v.1.15,2013-04-24 05:14:00,
2013-04-23 22:19:00,46.5,44.0,30.16,NNE,20,6.0,10.0,91,0.00,,,0.00,Wunderground v.1.15,2013-04-24 05:19:00,
2013-04-23 22:25:00,46.5,44.0,30.16,NNE,33,6.0,11.0,91,0.00,,,0.00,Wunderground v.1.15,2013-04-24 05:25:00,
2013-04-23 22:30:00,46.5,44.0,30.16,North,360,6.0,8.0,91,0.00,,,0.00,Wunderground v.1.15,2013-04-24 05:30:00,
2013-04-23 22:35:00,46.3,43.5,30.16,NNE,15,5.0,8.0,90,0.00,,,0.00,Wunderground v.1.15,2013-04-24 05:35:00,
2013-04-23 22:41:00,46.2,43.4,30.16,NNW,348,4.0,8.0,90,0.00,,,0.00,Wunderground v.1.15,2013-04-24 05:41:00,
2013-04-23 22:46:00,46.2,43.4,30.16,NNE,18,4.0,8.0,90,0.00,,,0.00,Wunderground v.1.15,2013-04-24 05:46:00,
2013-04-23 22:53:00,46.1,43.3,30.16,NE,44,4.0,8.0,90,0.00,,,0.00,Wunderground v.1.15,2013-04-24 05:53:00,
2013-04-23 22:59:00,46.0,43.2,30.16,NNE,13,4.0,8.0,90,0.00,,,0.00,Wunderground v.1.15,2013-04-24 05:59:00,
2013-04-23 23:05:00,46.0,43.2,30.16,NE,35,4.0,8.0,90,0.00,,,0.00,Wunderground v.1.15,2013-04-24 06:05:00,
2013-04-23 23:11:00,45.9,43.1,30.16,NNE,20,4.0,8.0,90,0.00,,,0.00,Wunderground v.1.15,2013-04-24 06:11:00,
2013-04-23 23:16:00,45.9,43.1,30.16,NNE,15,4.0,8.0,90,0.00,,,0.00,Wunderground v.1.15,2013-04-24 06:16:00,
2013-04-23 23:22:00,46.0,43.2,30.16,NE,46,4.0,8.0,90,0.00,,,0.00,Wunderground v.1.15,2013-04-24 06:22:00,
2013-04-23 23:28:00,45.9,43.1,30.16,NNE,27,4.0,8.0,90,0.00,,,0.00,Wunderground v.1.15,2013-04-24 06:28:00,
2013-04-23 23:33:00,45.9,43.1,30.16,NNE,33,4.0,8.0,90,0.00,,,0.00,Wunderground v.1.15,2013-04-24 06:33:00,
2013-04-23 23:38:00,45.8,43.0,30.15,NE,44,4.0,8.0,90,0.00,,,0.00,Wunderground v.1.15,2013-04-24 06:38:00,
2013-04-23 23:44:00,45.8,43.0,30.16,NE,43,4.0,8.0,90,0.00,,,0.00,Wunderground v.1.15,2013-04-24 06:44:00,
2013-04-23 23:50:00,45.8,43.0,30.15,NNE,22,5.0,8.0,90,0.00,,,0.00,Wunderground v.1.15,2013-04-24 06:50:00,
2013-04-23 23:55:00,45.7,42.9,30.15,NE,53,5.0,8.0,90,0.00,,,0.00,Wunderground v.1.15,2013-04-24 06:55:00,